createdAt,value
2022-08-17T00:00:51.800Z,44.89
2022-08-17T00:01:51.532Z,45.18
2022-08-17T00:02:41.129Z,44.94
2022-08-17T00:03:26.573Z,45.24
2022-08-17T00:04:11.646Z,45.32
2022-08-17T00:04:54.765Z,45.31
2022-08-17T00:05:41.281Z,45.35
2022-08-17T00:06:26.555Z,45.28
2022-08-17T00:07:10.487Z,44.95
2022-08-17T00:07:56.624Z,44.98
2022-08-17T00:08:41.275Z,45.00
2022-08-17T00:09:23.219Z,45.29
2022-08-17T00:10:08.685Z,45.06
2022-08-17T00:10:52.452Z,45.27
2022-08-17T00:11:36.211Z,44.96
2022-08-17T00:12:42.055Z,45.28
2022-08-17T00:13:21.240Z,45.37
2022-08-17T00:14:06.341Z,45.07
2022-08-17T00:14:52.429Z,45.06
2022-08-17T00:15:38.345Z,45.05
2022-08-17T00:16:22.782Z,45.06
2022-08-17T00:17:24.513Z,45.38
2022-08-17T00:19:05.782Z,45.15
2022-08-17T00:19:08.769Z,44.97
2022-08-17T00:19:52.803Z,45.33
2022-08-17T00:20:40.353Z,45.35
2022-08-17T00:21:26.922Z,45.39
2022-08-17T00:22:33.615Z,45.31
2022-08-17T00:23:19.871Z,45.18
2022-08-17T00:24:10.885Z,45.29
2022-08-17T00:24:59.003Z,45.09
2022-08-17T00:25:47.875Z,45.40
2022-08-17T00:26:44.236Z,45.06
2022-08-17T00:27:28.951Z,45.35
2022-08-17T00:28:13.404Z,45.29
2022-08-17T00:29:06.935Z,45.16
2022-08-17T00:29:52.416Z,45.32
2022-08-17T00:30:50.835Z,45.30
2022-08-17T00:31:37.281Z,45.04
2022-08-17T00:33:14.482Z,45.07
2022-08-17T00:33:23.724Z,45.41
2022-08-17T00:34:08.653Z,45.31
2022-08-17T00:34:52.763Z,45.00
2022-08-17T00:35:37.282Z,45.29
2022-08-17T00:36:25.724Z,45.00
2022-08-17T00:37:09.403Z,44.96
2022-08-17T00:37:55.086Z,45.00
2022-08-17T00:38:43.411Z,45.05
2022-08-17T00:39:24.839Z,45.40
2022-08-17T00:40:09.331Z,44.98
2022-08-17T00:40:55.801Z,45.02
2022-08-17T00:41:42.359Z,45.03
2022-08-17T00:42:30.901Z,45.41
2022-08-17T00:43:13.178Z,45.41
2022-08-17T00:43:59.274Z,45.29
2022-08-17T00:44:41.047Z,45.30
2022-08-17T00:45:25.316Z,45.25
2022-08-17T00:46:09.515Z,45.28
2022-08-17T00:46:53.030Z,45.39
2022-08-17T00:47:38.104Z,45.02
2022-08-17T00:48:29.883Z,45.10
2022-08-17T00:49:10.369Z,45.24
2022-08-17T00:49:55.480Z,45.33
2022-08-17T00:50:41.971Z,45.32
2022-08-17T00:51:27.573Z,45.13
2022-08-17T00:52:15.841Z,45.05
2022-08-17T00:53:01.506Z,45.38
2022-08-17T00:53:44.114Z,45.28
2022-08-17T00:54:31.452Z,45.31
2022-08-17T00:55:17.414Z,45.07
2022-08-17T00:56:04.866Z,45.11
2022-08-17T00:56:51.141Z,45.09
2022-08-17T00:57:37.216Z,45.03
2022-08-17T00:58:30.457Z,45.20
2022-08-17T00:59:24.753Z,44.97
2022-08-17T01:00:10.026Z,45.30
2022-08-17T01:00:57.382Z,45.15
2022-08-17T01:01:44.053Z,45.31
2022-08-17T01:02:34.315Z,44.92
2022-08-17T01:03:24.730Z,45.38
2022-08-17T01:04:12.756Z,45.33
2022-08-17T01:05:00.874Z,45.06
2022-08-17T01:05:48.305Z,45.11
2022-08-17T01:06:35.858Z,45.38
2022-08-17T01:07:21.666Z,45.05
2022-08-17T01:08:05.992Z,45.02
2022-08-17T01:08:51.760Z,45.33
2022-08-17T01:09:45.751Z,45.05
2022-08-17T01:10:57.150Z,45.14
2022-08-17T01:11:33.078Z,45.31
2022-08-17T01:12:18.052Z,45.08
2022-08-17T01:13:02.911Z,44.97
2022-08-17T01:13:46.739Z,45.01
2022-08-17T01:14:33.135Z,45.07
2022-08-17T01:15:25.808Z,45.27
2022-08-17T01:16:11.596Z,45.37
2022-08-17T01:17:00.090Z,45.07
2022-08-17T01:17:49.384Z,45.16
2022-08-17T01:18:32.574Z,45.26
2022-08-17T01:19:19.974Z,45.06
2022-08-17T01:20:07.917Z,45.29
2022-08-17T01:20:53.970Z,45.23
2022-08-17T01:21:42.493Z,45.36
2022-08-17T01:22:30.836Z,45.22
2022-08-17T01:23:47.379Z,45.30
2022-08-17T01:24:38.750Z,45.04
2022-08-17T01:25:27.098Z,45.31
2022-08-17T01:26:15.299Z,45.00
2022-08-17T01:27:01.201Z,45.24
2022-08-17T01:27:48.831Z,45.07
2022-08-17T01:28:54.651Z,44.94
2022-08-17T01:29:39.621Z,44.89
2022-08-17T01:30:58.562Z,45.26
2022-08-17T01:31:29.731Z,45.27
2022-08-17T01:32:18.837Z,44.91
2022-08-17T01:33:06.317Z,45.26
2022-08-17T01:33:55.135Z,44.96
2022-08-17T01:34:43.606Z,45.31
2022-08-17T01:35:27.528Z,44.89
2022-08-17T01:36:14.176Z,45.00
2022-08-17T01:36:59.745Z,44.93
2022-08-17T01:37:44.284Z,45.31
2022-08-17T01:38:30.146Z,44.99
2022-08-17T01:39:15.077Z,45.31
2022-08-17T01:39:59.763Z,45.29
2022-08-17T01:40:44.670Z,44.91
2022-08-17T01:41:33.322Z,45.29
2022-08-17T01:42:23.676Z,45.26
2022-08-17T01:43:07.246Z,45.31
2022-08-17T01:43:55.263Z,45.17
2022-08-17T01:44:39.574Z,44.95
2022-08-17T01:45:22.679Z,45.01
2022-08-17T01:46:06.643Z,44.96
2022-08-17T01:46:51.137Z,45.11
2022-08-17T01:47:36.052Z,44.98
2022-08-17T01:48:18.649Z,45.01
2022-08-17T01:49:04.961Z,44.98
2022-08-17T01:49:51.038Z,45.05
2022-08-17T01:50:39.343Z,44.93
2022-08-17T01:51:27.376Z,44.99
2022-08-17T01:52:13.192Z,45.23
2022-08-17T01:53:03.578Z,44.88
2022-08-17T01:53:46.545Z,45.27
2022-08-17T01:54:32.282Z,45.19
2022-08-17T01:55:18.921Z,45.04
2022-08-17T01:56:07.968Z,44.95
2022-08-17T01:56:57.863Z,45.24
2022-08-17T01:57:44.025Z,45.14
2022-08-17T01:58:37.055Z,45.20
2022-08-17T01:59:22.833Z,44.94
2022-08-17T02:00:11.414Z,45.30
2022-08-17T02:01:00.512Z,45.20
2022-08-17T02:01:46.158Z,45.18
2022-08-17T02:02:34.505Z,45.21
2022-08-17T02:03:23.072Z,44.92
2022-08-17T02:04:16.071Z,45.03
2022-08-17T02:05:01.094Z,44.95
2022-08-17T02:05:46.306Z,44.95
2022-08-17T02:06:52.661Z,45.29
2022-08-17T02:07:59.415Z,45.27
2022-08-17T02:08:38.969Z,45.22
2022-08-17T02:09:35.091Z,45.24
2022-08-17T02:10:24.498Z,45.17
2022-08-17T02:11:17.800Z,45.28
2022-08-17T02:12:39.535Z,44.93
2022-08-17T02:13:08.622Z,45.07
2022-08-17T02:13:57.916Z,45.11
2022-08-17T02:14:46.054Z,44.92
2022-08-17T02:15:29.852Z,45.19
2022-08-17T02:16:12.689Z,44.88
2022-08-17T02:16:57.963Z,45.25
2022-08-17T02:17:42.571Z,44.93
2022-08-17T02:18:30.043Z,44.87
2022-08-17T02:19:17.762Z,45.16
2022-08-17T02:20:02.690Z,45.07
2022-08-17T02:20:47.000Z,45.00
2022-08-17T02:21:31.210Z,45.21
2022-08-17T02:22:16.339Z,45.11
2022-08-17T02:23:00.876Z,44.82
2022-08-17T02:23:45.465Z,44.91
2022-08-17T02:24:58.339Z,44.87
2022-08-17T02:25:29.009Z,44.90
2022-08-17T02:26:26.037Z,45.03
2022-08-17T02:27:09.949Z,44.93
2022-08-17T02:27:53.774Z,45.17
2022-08-17T02:28:36.447Z,45.25
2022-08-17T02:29:21.545Z,44.85
2022-08-17T02:30:06.272Z,44.87
2022-08-17T02:31:07.736Z,45.18
2022-08-17T02:31:55.195Z,44.91
2022-08-17T02:32:41.498Z,45.06
2022-08-17T02:33:41.831Z,44.87
2022-08-17T02:34:24.497Z,44.83
2022-08-17T02:35:09.141Z,45.17
2022-08-17T02:35:54.371Z,45.26
2022-08-17T02:36:39.522Z,44.91
2022-08-17T02:37:24.652Z,44.93
2022-08-17T02:38:09.059Z,44.85
2022-08-17T02:38:50.760Z,45.22
2022-08-17T02:39:35.585Z,44.93
2022-08-17T02:40:35.726Z,45.13
2022-08-17T02:41:20.099Z,45.18
2022-08-17T02:42:05.706Z,45.06
2022-08-17T02:42:50.326Z,44.87
2022-08-17T02:43:32.712Z,44.94
2022-08-17T02:44:39.345Z,45.06
2022-08-17T02:45:17.358Z,45.18
2022-08-17T02:46:03.112Z,45.14
2022-08-17T02:46:49.070Z,45.14
2022-08-17T02:47:37.647Z,45.08
2022-08-17T02:48:30.529Z,45.18
2022-08-17T02:49:19.965Z,45.18
2022-08-17T02:50:05.229Z,44.78
2022-08-17T02:50:54.561Z,45.18
2022-08-17T02:51:43.607Z,45.09
2022-08-17T02:52:43.079Z,44.79
2022-08-17T02:53:26.482Z,44.91
2022-08-17T02:54:40.471Z,44.84
2022-08-17T02:55:21.724Z,45.11
2022-08-17T02:56:09.938Z,44.80
2022-08-17T02:56:58.540Z,44.88
2022-08-17T02:57:46.361Z,44.95
2022-08-17T02:58:35.647Z,45.12
2022-08-17T02:59:18.155Z,44.77
2022-08-17T03:00:02.874Z,44.83
2022-08-17T03:00:47.110Z,45.12
2022-08-17T03:01:30.875Z,44.77
2022-08-17T03:02:17.004Z,45.00
2022-08-17T03:03:02.355Z,45.14
2022-08-17T03:03:47.179Z,44.84
2022-08-17T03:04:35.353Z,45.00
2022-08-17T03:05:19.137Z,45.12
2022-08-17T03:06:04.569Z,45.11
2022-08-17T03:06:52.462Z,44.76
2022-08-17T03:07:37.788Z,44.93
2022-08-17T03:08:23.016Z,44.80
2022-08-17T03:09:09.744Z,44.97
2022-08-17T03:09:52.963Z,45.12
2022-08-17T03:10:39.209Z,44.82
2022-08-17T03:11:27.769Z,45.12
2022-08-17T03:12:13.204Z,44.87
2022-08-17T03:12:59.407Z,44.84
2022-08-17T03:13:49.411Z,44.77
2022-08-17T03:14:39.424Z,45.10
2022-08-17T03:15:22.230Z,45.04
2022-08-17T03:16:09.763Z,44.73
2022-08-17T03:16:56.329Z,45.08
2022-08-17T03:17:43.816Z,44.87
2022-08-17T03:18:30.149Z,44.90
2022-08-17T03:19:19.047Z,44.78
2022-08-17T03:20:04.020Z,44.78
2022-08-17T03:20:52.065Z,45.04
2022-08-17T03:21:37.073Z,44.78
2022-08-17T03:22:37.100Z,44.99
2022-08-17T03:23:31.302Z,44.91
2022-08-17T03:24:18.744Z,44.71
2022-08-17T03:25:04.631Z,45.00
2022-08-17T03:25:52.769Z,44.72
2022-08-17T03:26:34.684Z,44.98
2022-08-17T03:27:20.794Z,44.83
2022-08-17T03:28:09.555Z,44.88
2022-08-17T03:28:58.536Z,45.07
2022-08-17T03:29:45.274Z,44.65
2022-08-17T03:30:33.337Z,44.69
2022-08-17T03:31:20.096Z,44.78
2022-08-17T03:32:06.065Z,44.73
2022-08-17T03:32:51.724Z,44.69
2022-08-17T03:33:37.692Z,44.73
2022-08-17T03:34:26.072Z,45.05
2022-08-17T03:35:11.552Z,44.78
2022-08-17T03:35:58.112Z,45.06
2022-08-17T03:36:45.552Z,45.08
2022-08-17T03:37:35.653Z,44.96
2022-08-17T03:38:23.299Z,45.05
2022-08-17T03:39:08.225Z,45.05
2022-08-17T03:39:55.939Z,45.04
2022-08-17T03:40:58.426Z,44.75
2022-08-17T03:41:43.069Z,44.78
2022-08-17T03:42:35.272Z,44.68
2022-08-17T03:43:21.242Z,45.06
2022-08-17T03:44:08.584Z,45.09
2022-08-17T03:44:53.747Z,44.85
2022-08-17T03:45:42.593Z,44.92
2022-08-17T03:46:34.962Z,44.87
2022-08-17T03:47:17.485Z,44.70
2022-08-17T03:48:01.406Z,44.86
2022-08-17T03:48:47.162Z,45.05
2022-08-17T03:49:30.865Z,44.89
2022-08-17T03:50:16.480Z,45.11
2022-08-17T03:51:05.403Z,45.07
2022-08-17T03:51:51.631Z,44.99
2022-08-17T03:52:38.841Z,44.81
2022-08-17T03:53:22.826Z,44.96
2022-08-17T03:54:06.043Z,44.57
2022-08-17T03:54:51.735Z,44.67
2022-08-17T03:55:37.189Z,45.06
2022-08-17T03:56:25.021Z,44.94
2022-08-17T03:57:07.040Z,44.92
2022-08-17T03:57:53.446Z,44.63
2022-08-17T03:58:39.769Z,44.92
2022-08-17T03:59:28.940Z,44.91
2022-08-17T04:00:15.762Z,44.99
2022-08-17T04:01:02.492Z,44.90
2022-08-17T04:01:50.671Z,44.74
2022-08-17T04:02:51.465Z,44.94
2022-08-17T04:03:36.986Z,44.55
2022-08-17T04:04:27.796Z,44.88
2022-08-17T04:05:12.972Z,44.77
2022-08-17T04:06:01.178Z,44.88
2022-08-17T04:06:48.692Z,44.69
2022-08-17T04:07:34.415Z,44.75
2022-08-17T04:08:22.517Z,44.74
2022-08-17T04:09:08.788Z,44.64
2022-08-17T04:09:57.779Z,44.67
2022-08-17T04:10:45.052Z,44.57
2022-08-17T04:11:28.896Z,44.65
2022-08-17T04:12:17.018Z,44.62
2022-08-17T04:13:04.228Z,44.56
2022-08-17T04:13:50.163Z,44.81
2022-08-17T04:14:53.169Z,44.87
2022-08-17T04:15:37.076Z,44.91
2022-08-17T04:16:22.872Z,44.90
2022-08-17T04:17:07.900Z,44.70
2022-08-17T04:17:56.569Z,44.91
2022-08-17T04:18:46.979Z,44.92
2022-08-17T04:19:35.595Z,44.91
2022-08-17T04:20:23.851Z,44.63
2022-08-17T04:21:10.393Z,44.91
2022-08-17T04:21:58.253Z,44.88
2022-08-17T04:22:43.253Z,44.91
2022-08-17T04:23:31.435Z,44.65
2022-08-17T04:24:16.983Z,44.92
2022-08-17T04:25:02.213Z,44.88
2022-08-17T04:25:48.543Z,44.95
2022-08-17T04:26:53.771Z,44.54
2022-08-17T04:27:35.921Z,44.64
2022-08-17T04:28:21.746Z,44.88
2022-08-17T04:29:06.537Z,44.70
2022-08-17T04:29:54.812Z,44.61
2022-08-17T04:30:39.240Z,44.94
2022-08-17T04:31:25.257Z,44.91
2022-08-17T04:32:14.499Z,44.61
2022-08-17T04:33:06.043Z,44.87
2022-08-17T04:33:49.568Z,44.64
2022-08-17T04:34:35.455Z,44.62
2022-08-17T04:35:22.370Z,44.77
2022-08-17T04:36:10.550Z,44.73
2022-08-17T04:36:59.708Z,44.80
2022-08-17T04:37:42.313Z,44.56
2022-08-17T04:38:29.183Z,44.63
2022-08-17T04:39:13.993Z,44.94
2022-08-17T04:40:03.405Z,44.59
2022-08-17T04:40:48.284Z,44.64
2022-08-17T04:41:32.834Z,44.58
2022-08-17T04:42:21.493Z,44.87
2022-08-17T04:43:04.517Z,44.53
2022-08-17T04:43:50.135Z,44.54
2022-08-17T04:44:37.685Z,44.82
2022-08-17T04:45:22.487Z,44.83
2022-08-17T04:46:10.913Z,44.76
2022-08-17T04:46:57.585Z,44.57
2022-08-17T04:47:41.161Z,44.52
2022-08-17T04:48:34.749Z,44.88
2022-08-17T04:49:20.110Z,44.83
2022-08-17T04:50:07.864Z,44.61
2022-08-17T04:50:55.122Z,44.84
2022-08-17T04:51:55.733Z,44.56
2022-08-17T04:52:45.002Z,44.87
2022-08-17T04:53:29.629Z,44.90
2022-08-17T04:54:16.944Z,44.73
2022-08-17T04:55:03.967Z,44.88
2022-08-17T04:55:49.203Z,44.87
2022-08-17T04:56:37.462Z,44.86
2022-08-17T04:57:25.774Z,44.57
2022-08-17T04:58:08.567Z,44.87
2022-08-17T04:58:57.244Z,44.91
2022-08-17T04:59:42.840Z,44.81
2022-08-17T05:00:28.449Z,44.61
2022-08-17T05:01:16.883Z,44.54
2022-08-17T05:02:07.934Z,44.90
2022-08-17T05:02:53.248Z,44.85
2022-08-17T05:03:39.361Z,44.84
2022-08-17T05:04:34.893Z,44.83
2022-08-17T05:05:18.696Z,44.93
2022-08-17T05:06:04.996Z,44.90
2022-08-17T05:06:53.069Z,44.83
2022-08-17T05:07:40.044Z,44.51
2022-08-17T05:08:23.701Z,44.51
2022-08-17T05:09:09.992Z,44.61
2022-08-17T05:09:55.087Z,44.49
2022-08-17T05:10:45.588Z,44.53
2022-08-17T05:11:30.075Z,44.49
2022-08-17T05:12:14.830Z,44.88
2022-08-17T05:12:57.257Z,44.60
2022-08-17T05:13:43.482Z,44.58
2022-08-17T05:14:32.900Z,44.85
2022-08-17T05:15:16.415Z,44.88
2022-08-17T05:16:02.079Z,44.62
2022-08-17T05:16:51.980Z,44.79
2022-08-17T05:17:38.254Z,44.85
2022-08-17T05:18:30.709Z,44.90
2022-08-17T05:19:17.981Z,44.54
2022-08-17T05:20:49.608Z,44.56
2022-08-17T05:21:44.055Z,44.80
2022-08-17T05:22:32.442Z,44.64
2022-08-17T05:23:15.525Z,44.80
2022-08-17T05:24:06.072Z,44.57
2022-08-17T05:25:07.973Z,44.83
2022-08-17T05:25:57.932Z,44.80
2022-08-17T05:26:51.960Z,44.84
2022-08-17T05:27:42.982Z,44.85
2022-08-17T05:28:40.231Z,44.81
2022-08-17T05:29:33.757Z,44.84
2022-08-17T05:30:20.653Z,44.50
2022-08-17T05:31:08.797Z,44.48
2022-08-17T05:31:57.205Z,44.49
2022-08-17T05:32:40.452Z,44.52
2022-08-17T05:34:47.824Z,44.49
2022-08-17T05:35:33.093Z,44.55
2022-08-17T05:36:43.349Z,44.51
2022-08-17T05:37:39.521Z,44.83
2022-08-17T05:38:27.632Z,44.86
2022-08-17T05:39:21.261Z,44.50
2022-08-17T05:40:11.621Z,44.47
2022-08-17T05:40:58.115Z,44.51
2022-08-17T05:41:42.545Z,44.62
2022-08-17T05:42:26.080Z,44.87
2022-08-17T05:43:09.468Z,44.67
2022-08-17T05:44:05.531Z,44.75
2022-08-17T05:44:54.460Z,44.48
2022-08-17T05:45:54.454Z,44.46
2022-08-17T05:46:22.780Z,44.47
2022-08-17T05:46:59.507Z,44.50
2022-08-17T05:47:35.630Z,44.81
2022-08-17T05:48:11.527Z,44.82
2022-08-17T05:48:46.994Z,44.57
2022-08-17T05:50:41.608Z,44.59
2022-08-17T05:51:18.282Z,44.72
2022-08-17T05:51:54.652Z,44.65
2022-08-17T05:52:31.264Z,44.54
2022-08-17T05:53:09.514Z,44.48
2022-08-17T05:53:49.011Z,44.80
2022-08-17T05:54:26.258Z,44.45
2022-08-17T05:55:06.071Z,44.51
2022-08-17T05:55:42.431Z,44.51
2022-08-17T05:56:29.465Z,44.62
2022-08-17T05:57:07.479Z,44.64
2022-08-17T05:57:53.318Z,44.79
2022-08-17T05:58:32.685Z,44.79
2022-08-17T06:02:06.951Z,44.50
2022-08-17T06:02:47.653Z,44.56
2022-08-17T06:03:24.925Z,44.73
2022-08-17T06:04:06.162Z,44.83
2022-08-17T06:04:41.483Z,44.63
2022-08-17T06:05:17.943Z,44.84
2022-08-17T06:05:54.613Z,44.47
2022-08-17T06:06:31.584Z,44.63
2022-08-17T06:07:10.669Z,44.48
2022-08-17T06:07:47.328Z,44.84
2022-08-17T06:08:22.597Z,44.50
2022-08-17T06:08:59.538Z,44.80
2022-08-17T06:09:36.750Z,44.44
2022-08-17T06:10:18.404Z,44.50
2022-08-17T06:10:58.045Z,44.46
2022-08-17T06:11:35.259Z,44.57
2022-08-17T06:12:14.426Z,44.50
2022-08-17T06:12:54.950Z,44.45
2022-08-17T06:14:54.620Z,44.43
2022-08-17T06:15:39.195Z,44.56
2022-08-17T06:16:34.075Z,44.75
2022-08-17T06:20:38.575Z,44.48
2022-08-17T06:29:33.874Z,44.49
2022-08-17T06:30:24.191Z,44.46
2022-08-17T06:31:22.578Z,44.82
2022-08-17T06:54:50.303Z,44.73
2022-08-17T06:55:26.736Z,44.83
2022-08-17T06:56:03.969Z,44.98
2022-08-17T06:56:53.331Z,45.02
2022-08-17T06:59:57.527Z,45.02
2022-08-17T07:00:34.001Z,44.87
2022-08-17T07:01:11.660Z,45.10
2022-08-17T07:01:48.899Z,45.13
2022-08-17T07:02:29.368Z,44.95
2022-08-17T07:03:21.201Z,45.05
2022-08-17T07:03:58.534Z,44.86
2022-08-17T07:04:34.617Z,45.00
2022-08-17T07:05:10.614Z,45.09
2022-08-17T07:05:47.011Z,44.96
2022-08-17T07:06:24.718Z,44.78
2022-08-17T07:07:00.966Z,45.03
2022-08-17T07:07:39.115Z,45.02
2022-08-17T07:08:15.969Z,44.74
2022-08-17T07:08:52.010Z,44.96
2022-08-17T07:09:28.417Z,44.63
2022-08-17T07:10:04.464Z,44.77
2022-08-17T07:10:40.602Z,45.01
2022-08-17T07:11:18.505Z,44.65
2022-08-17T07:11:54.374Z,44.66
2022-08-17T07:12:30.290Z,44.76
2022-08-17T07:13:09.922Z,44.67
2022-08-17T07:13:51.343Z,44.99
2022-08-17T07:14:29.105Z,44.68
2022-08-17T07:15:09.419Z,44.69
2022-08-17T07:15:56.902Z,44.97
2022-08-17T07:16:32.630Z,45.02
2022-08-17T07:17:10.477Z,44.72
2022-08-17T07:17:48.965Z,44.84
2022-08-17T07:18:25.476Z,45.05
2022-08-17T07:19:03.080Z,44.76
2022-08-17T07:19:40.243Z,45.03
2022-08-17T07:20:17.071Z,45.02
2022-08-17T07:20:55.208Z,45.08
2022-08-17T07:21:31.283Z,45.09
2022-08-17T07:22:07.700Z,44.89
2022-08-17T07:22:54.797Z,44.75
2022-08-17T07:23:35.958Z,44.96
2022-08-17T07:24:28.103Z,44.67
2022-08-17T07:25:05.781Z,44.98
2022-08-17T07:25:42.795Z,44.93
2022-08-17T07:26:22.326Z,44.73
2022-08-17T07:26:59.602Z,44.73
2022-08-17T07:27:35.844Z,44.75
2022-08-17T07:28:13.220Z,44.68
2022-08-17T07:28:49.092Z,44.72
2022-08-17T07:29:25.117Z,44.73
2022-08-17T07:30:03.758Z,44.85
2022-08-17T07:30:47.049Z,44.76
2022-08-17T07:31:23.581Z,44.66
2022-08-17T07:31:59.965Z,44.76
2022-08-17T07:32:36.963Z,44.75
2022-08-17T07:33:13.974Z,45.06
2022-08-17T07:33:50.886Z,44.91
2022-08-17T07:34:26.776Z,45.02
2022-08-17T07:35:05.043Z,44.74
2022-08-17T07:35:43.951Z,44.82
2022-08-17T07:36:20.091Z,44.68
2022-08-17T07:36:56.989Z,44.68
2022-08-17T07:37:33.292Z,44.98
2022-08-17T07:38:24.358Z,44.65
2022-08-17T07:39:02.550Z,44.99
2022-08-17T07:39:59.718Z,44.76
2022-08-17T07:40:34.904Z,44.76
2022-08-17T07:41:10.258Z,44.72
2022-08-17T07:41:58.746Z,44.74
2022-08-17T07:42:34.621Z,44.79
2022-08-17T07:43:15.553Z,45.01
2022-08-17T07:43:59.264Z,45.05
2022-08-17T07:44:36.657Z,45.01
2022-08-17T07:45:16.625Z,45.02
2022-08-17T07:45:52.715Z,45.05
2022-08-17T07:46:32.121Z,44.83
2022-08-17T07:47:08.684Z,44.90
2022-08-17T07:47:44.522Z,45.04
2022-08-17T07:48:22.881Z,44.82
2022-08-17T07:49:01.076Z,45.07
2022-08-17T07:49:38.046Z,44.81
2022-08-17T07:50:14.783Z,44.94
2022-08-17T07:50:50.634Z,44.98
2022-08-17T07:51:27.461Z,45.05
2022-08-17T07:52:23.912Z,44.97
2022-08-17T07:53:00.820Z,44.89
2022-08-17T07:53:37.504Z,44.96
2022-08-17T07:54:15.037Z,44.76
2022-08-17T07:54:53.769Z,45.08
2022-08-17T07:55:30.660Z,45.10
2022-08-17T07:56:09.091Z,44.79
2022-08-17T07:56:49.272Z,44.79
2022-08-17T07:57:30.082Z,44.74
2022-08-17T07:58:07.619Z,45.15
2022-08-17T07:58:46.798Z,45.15
2022-08-17T07:59:24.811Z,44.79
2022-08-17T08:00:03.683Z,45.15
2022-08-17T08:00:40.860Z,45.15
2022-08-17T08:01:17.820Z,45.15
2022-08-17T08:01:57.681Z,44.87
2022-08-17T08:02:36.162Z,45.01
2022-08-17T08:03:14.031Z,44.83
2022-08-17T08:03:53.515Z,45.10
2022-08-17T08:05:49.765Z,45.12
2022-08-17T08:06:24.432Z,45.03
2022-08-17T08:07:02.638Z,44.85
2022-08-17T08:07:40.947Z,45.08
2022-08-17T08:08:18.393Z,44.84
2022-08-17T08:08:57.835Z,44.74
2022-08-17T08:09:38.318Z,45.12
2022-08-17T08:10:16.609Z,45.09
2022-08-17T08:10:56.666Z,44.82
2022-08-17T08:11:34.982Z,44.83
2022-08-17T08:12:16.065Z,44.87
2022-08-17T08:12:53.790Z,44.90
2022-08-17T08:13:32.579Z,45.09
2022-08-17T08:14:10.895Z,44.90
2022-08-17T08:14:48.188Z,45.18
2022-08-17T08:15:26.176Z,44.80
2022-08-17T08:16:02.784Z,44.96
2022-08-17T08:16:40.752Z,45.10
2022-08-17T08:17:18.623Z,44.99
2022-08-17T08:17:57.992Z,45.20
2022-08-17T08:18:55.476Z,44.92
2022-08-17T08:19:33.655Z,44.97
2022-08-17T08:20:47.754Z,44.82
2022-08-17T08:21:08.574Z,44.97
2022-08-17T08:21:46.566Z,45.22
2022-08-17T08:22:28.489Z,44.88
2022-08-17T08:23:07.429Z,45.14
2022-08-17T08:23:47.657Z,45.23
2022-08-17T08:24:30.029Z,44.83
2022-08-17T08:25:07.239Z,45.13
2022-08-17T08:25:45.595Z,44.87
2022-08-17T08:26:24.786Z,44.83
2022-08-17T08:27:03.692Z,44.85
2022-08-17T08:27:42.644Z,44.85
2022-08-17T08:28:21.795Z,44.92
2022-08-17T08:29:00.427Z,45.09
2022-08-17T08:29:38.479Z,45.01
2022-08-17T08:30:16.970Z,45.23
2022-08-17T08:30:55.275Z,44.89
2022-08-17T08:31:31.867Z,45.01
2022-08-17T08:32:10.838Z,44.87
2022-08-17T08:32:50.172Z,44.93
2022-08-17T08:33:29.692Z,44.90
2022-08-17T08:34:55.877Z,44.91
2022-08-17T08:35:06.491Z,45.00
2022-08-17T08:35:47.038Z,45.09
2022-08-17T08:37:12.700Z,45.13
2022-08-17T08:37:32.701Z,45.16
2022-08-17T08:38:10.658Z,45.15
2022-08-17T08:38:49.207Z,44.92
2022-08-17T08:39:28.986Z,45.25
2022-08-17T08:40:06.620Z,45.12
2022-08-17T08:40:45.076Z,45.25
2022-08-17T08:41:22.800Z,44.99
2022-08-17T08:42:02.027Z,44.90
2022-08-17T08:42:41.186Z,45.04
2022-08-17T08:43:20.072Z,44.91
2022-08-17T08:43:58.577Z,45.21
2022-08-17T08:44:59.926Z,45.26
2022-08-17T08:45:29.565Z,45.25
2022-08-17T08:46:05.324Z,44.94
2022-08-17T08:46:42.187Z,44.92
2022-08-17T08:47:18.959Z,44.90
2022-08-17T08:47:55.495Z,44.88
2022-08-17T08:48:46.302Z,45.18
2022-08-17T08:50:01.282Z,45.07
2022-08-17T08:50:37.728Z,45.19
2022-08-17T08:51:16.311Z,44.90
2022-08-17T08:51:55.060Z,44.88
2022-08-17T08:52:32.866Z,44.94
2022-08-17T08:53:11.421Z,45.23
2022-08-17T08:53:51.768Z,45.27
2022-08-17T08:54:32.950Z,44.94
2022-08-17T08:55:11.108Z,45.10
2022-08-17T08:55:50.111Z,44.97
2022-08-17T08:56:28.316Z,45.35
2022-08-17T08:57:26.979Z,45.14
2022-08-17T08:58:03.805Z,45.25
2022-08-17T08:58:43.722Z,45.42
2022-08-17T08:59:24.717Z,45.89
2022-08-17T09:00:07.945Z,45.55
2022-08-17T09:00:49.545Z,45.68
2022-08-17T09:01:28.848Z,46.02
2022-08-17T09:02:08.914Z,45.99
2022-08-17T09:02:47.695Z,45.84
2022-08-17T09:03:51.276Z,46.04
2022-08-17T09:04:25.191Z,46.29
2022-08-17T09:05:17.038Z,46.43
2022-08-17T09:05:53.465Z,46.28
2022-08-17T09:06:37.527Z,46.25
2022-08-17T09:07:16.866Z,46.16
2022-08-17T09:07:54.759Z,46.43
2022-08-17T09:08:35.044Z,46.41
2022-08-17T09:09:15.103Z,46.27
2022-08-17T09:09:59.021Z,46.53
2022-08-17T09:10:36.714Z,46.20
2022-08-17T09:11:14.537Z,46.13
2022-08-17T09:12:02.931Z,46.38
2022-08-17T09:12:42.050Z,46.76
2022-08-17T09:13:20.662Z,46.40
2022-08-17T09:14:00.457Z,46.41
2022-08-17T09:14:46.638Z,46.81
2022-08-17T09:15:22.617Z,46.65
2022-08-17T09:16:02.783Z,46.41
2022-08-17T09:16:41.992Z,46.48
2022-08-17T09:17:22.345Z,46.75
2022-08-17T09:18:59.029Z,46.67
2022-08-17T09:19:04.295Z,46.66
2022-08-17T09:19:41.461Z,46.53
2022-08-17T09:20:27.681Z,46.34
2022-08-17T09:21:05.071Z,46.64
2022-08-17T09:21:47.698Z,46.45
2022-08-17T09:22:30.120Z,46.38
2022-08-17T09:23:11.214Z,46.44
2022-08-17T09:23:52.385Z,46.53
2022-08-17T09:24:33.553Z,46.44
2022-08-17T09:25:14.207Z,46.64
2022-08-17T09:25:55.180Z,46.45
2022-08-17T09:26:34.482Z,46.86
2022-08-17T09:27:11.842Z,46.50
2022-08-17T09:27:54.612Z,46.98
2022-08-17T09:28:37.215Z,47.01
2022-08-17T09:29:19.173Z,46.65
2022-08-17T09:30:02.244Z,46.72
2022-08-17T09:30:46.115Z,47.11
2022-08-17T09:31:31.250Z,47.18
2022-08-17T09:32:09.423Z,46.95
2022-08-17T09:32:49.753Z,47.29
2022-08-17T09:33:31.543Z,47.29
2022-08-17T09:34:12.820Z,47.41
2022-08-17T09:34:53.783Z,47.13
2022-08-17T09:35:32.915Z,47.37
2022-08-17T09:36:15.071Z,47.20
2022-08-17T09:36:52.097Z,47.45
2022-08-17T09:37:30.714Z,47.19
2022-08-17T09:38:08.262Z,47.17
2022-08-17T09:38:48.298Z,47.15
2022-08-17T09:39:29.159Z,47.08
2022-08-17T09:40:08.394Z,47.27
2022-08-17T09:40:47.057Z,47.33
2022-08-17T09:41:23.603Z,47.30
2022-08-17T09:42:03.877Z,47.24
2022-08-17T09:42:44.034Z,47.28
2022-08-17T09:43:22.247Z,47.62
2022-08-17T09:44:00.832Z,47.28
2022-08-17T09:44:40.023Z,47.50
2022-08-17T09:45:19.217Z,47.35
2022-08-17T09:45:57.917Z,47.28
2022-08-17T09:46:35.550Z,47.68
2022-08-17T09:47:15.691Z,47.29
2022-08-17T09:47:54.132Z,47.27
2022-08-17T09:48:34.136Z,47.36
2022-08-17T09:49:13.943Z,47.35
2022-08-17T09:49:56.769Z,47.67
2022-08-17T09:51:05.423Z,47.84
2022-08-17T09:51:33.909Z,47.50
2022-08-17T09:52:13.888Z,47.47
2022-08-17T09:52:58.358Z,47.76
2022-08-17T09:53:35.915Z,47.52
2022-08-17T09:54:38.089Z,47.83
2022-08-17T09:55:12.531Z,47.88
2022-08-17T09:55:52.649Z,47.79
2022-08-17T09:56:33.153Z,47.44
2022-08-17T09:57:29.242Z,47.81
2022-08-17T09:58:10.034Z,47.96
2022-08-17T09:58:50.340Z,47.87
2022-08-17T09:59:38.377Z,48.04
2022-08-17T10:00:16.887Z,47.78
2022-08-17T10:00:56.455Z,47.64
2022-08-17T10:01:35.365Z,48.00
2022-08-17T10:02:13.653Z,47.63
2022-08-17T10:02:52.664Z,47.81
2022-08-17T10:03:33.270Z,47.83
2022-08-17T10:04:11.414Z,47.44
2022-08-17T10:04:49.846Z,47.76
2022-08-17T10:05:29.947Z,47.74
2022-08-17T10:06:10.104Z,47.46
2022-08-17T10:06:56.252Z,47.55
2022-08-17T10:07:34.900Z,47.55
2022-08-17T10:08:14.136Z,47.70
2022-08-17T10:08:57.365Z,47.74
2022-08-17T10:09:38.186Z,47.71
2022-08-17T10:10:18.675Z,47.66
2022-08-17T10:10:57.036Z,47.45
2022-08-17T10:11:38.006Z,47.40
2022-08-17T10:12:22.391Z,47.76
2022-08-17T10:13:06.942Z,47.39
2022-08-17T10:13:53.358Z,47.44
2022-08-17T10:14:38.077Z,47.52
2022-08-17T10:15:21.056Z,47.21
2022-08-17T10:16:00.793Z,47.47
2022-08-17T10:16:42.261Z,47.59
2022-08-17T10:17:20.997Z,47.53
2022-08-17T10:18:02.108Z,47.49
2022-08-17T10:18:42.891Z,47.17